Time;durP1;ratioP1;P1;durP2;ratioP2;P2;SDS_P1;SDS_P2;PMS_P1;PMS_P2;Temp;Humidity;BMP_temperature;BMP_pressure;BME280_temperature;BME280_humidity;BME280_pressure;Samples;Min_cycle;Max_cycle;Signal;HPM_P1;HPM_P2
2021/12/29 00:00:24;;;;;;;0.00;0.00;;;;;;;;;;1725993;28;20196;-71
2021/12/29 00:01:15;;;;;;;0.00;0.00;;;;;;;;;;1718802;28;20232;-70
2021/12/29 00:02:07;;;;;;;0.00;0.00;;;;;;;;;;1719112;28;20306;-70
2021/12/29 00:03:00;;;;;;;0.00;0.00;;;;;;;;;;1718405;28;20209;-70
2021/12/29 00:03:52;;;;;;;0.00;0.00;;;;;;;;;;1718195;28;20204;-70
2021/12/29 00:04:43;;;;;;;0.00;0.00;;;;;;;;;;1719549;28;20705;-70
2021/12/29 00:05:35;;;;;;;0.00;0.00;;;;;;;;;;1720513;28;20291;-70
2021/12/29 00:06:26;;;;;;;0.00;0.00;;;;;;;;;;1726359;28;20211;-70
2021/12/29 00:07:20;;;;;;;0.00;0.00;;;;;;;;;;1726082;28;21272;-70
2021/12/29 00:08:12;;;;;;;0.00;0.00;;;;;;;;;;1726167;28;20208;-70
2021/12/29 00:09:05;;;;;;;0.00;0.00;;;;;;;;;;1724894;28;20699;-70
2021/12/29 00:09:59;;;;;;;0.00;0.00;;;;;;;;;;1726253;28;20208;-70
2021/12/29 00:10:55;;;;;;;0.00;0.00;;;;;;;;;;1725264;28;20228;-70
2021/12/29 00:11:46;;;;;;;0.00;0.00;;;;;;;;;;1723120;28;20310;-70
2021/12/29 00:12:41;;;;;;;0.00;0.00;;;;;;;;;;1725784;28;20642;-70
2021/12/29 00:13:32;;;;;;;0.00;0.00;;;;;;;;;;1726641;28;20534;-70
2021/12/29 00:14:25;;;;;;;0.00;0.00;;;;;;;;;;1725163;28;20263;-70
2021/12/29 00:15:17;;;;;;;0.00;0.00;;;;;;;;;;1726328;28;20204;-70
2021/12/29 00:16:09;;;;;;;0.00;0.00;;;;;;;;;;1724840;28;20737;-70
2021/12/29 00:17:00;;;;;;;0.00;0.00;;;;;;;;;;1725960;28;20258;-70
2021/12/29 00:17:53;;;;;;;0.00;0.00;;;;;;;;;;1725801;28;20225;-70
2021/12/29 00:18:44;;;;;;;0.00;0.00;;;;;;;;;;1726034;28;20550;-70
2021/12/29 00:19:36;;;;;;;0.00;0.00;;;;;;;;;;1725603;28;20197;-70
2021/12/29 00:20:30;;;;;;;0.00;0.00;;;;;;;;;;1724837;28;20228;-69
2021/12/29 00:21:21;;;;;;;0.00;0.00;;;;;;;;;;1725804;28;20221;-69
2021/12/29 00:22:13;;;;;;;0.00;0.00;;;;;;;;;;1725938;28;20242;-69
2021/12/29 00:23:07;;;;;;;0.00;0.00;;;;;;;;;;1725975;28;20204;-69
2021/12/29 00:23:59;;;;;;;0.00;0.00;;;;;;;;;;1725769;28;20338;-69
2021/12/29 00:24:52;;;;;;;0.00;0.00;;;;;;;;;;1726347;28;20689;-69
2021/12/29 00:25:44;;;;;;;0.00;0.00;;;;;;;;;;1726101;28;20273;-69
2021/12/29 00:26:35;;;;;;;0.00;0.00;;;;;;;;;;1725187;28;20219;-69
2021/12/29 00:27:28;;;;;;;0.00;0.00;;;;;;;;;;1725839;28;20221;-69
2021/12/29 00:28:19;;;;;;;0.00;0.00;;;;;;;;;;1726151;28;20221;-69
2021/12/29 00:29:11;;;;;;;0.00;0.00;;;;;;;;;;1725310;28;20206;-69
2021/12/29 00:30:02;;;;;;;0.00;0.00;;;;;;;;;;1722827;28;20208;-69
2021/12/29 00:30:55;;;;;;;0.00;0.00;;;;;;;;;;1724961;28;20231;-70
2021/12/29 00:31:46;;;;;;;0.00;0.00;;;;;;;;;;1726142;28;20208;-70
2021/12/29 00:32:38;;;;;;;0.00;0.00;;;;;;;;;;1724609;28;20230;-70
2021/12/29 00:33:29;;;;;;;0.00;0.00;;;;;;;;;;1726370;28;20231;-70
2021/12/29 00:34:21;;;;;;;0.00;0.00;;;;;;;;;;1725828;28;20307;-70
2021/12/29 00:35:14;;;;;;;0.00;0.00;;;;;;;;;;1726889;28;20204;-70
2021/12/29 00:36:06;;;;;;;0.00;0.00;;;;;;;;;;1723936;28;20481;-70
2021/12/29 00:36:58;;;;;;;0.00;0.00;;;;;;;;;;1725435;28;20289;-70
2021/12/29 00:37:50;;;;;;;0.00;0.00;;;;;;;;;;1725634;28;20262;-70
2021/12/29 00:38:42;;;;;;;0.00;0.00;;;;;;;;;;1725226;28;20528;-70
2021/12/29 00:39:34;;;;;;;0.00;0.00;;;;;;;;;;1725752;28;20291;-70
2021/12/29 00:40:26;;;;;;;0.00;0.00;;;;;;;;;;1725723;28;20200;-70
2021/12/29 00:41:19;;;;;;;0.00;0.00;;;;;;;;;;1726206;28;20497;-70
2021/12/29 00:42:10;;;;;;;0.00;0.00;;;;;;;;;;1725861;28;20219;-70
2021/12/29 00:43:02;;;;;;;0.00;0.00;;;;;;;;;;1725871;28;20219;-70
2021/12/29 00:43:55;;;;;;;0.00;0.00;;;;;;;;;;1725616;28;20266;-70
2021/12/29 00:44:49;;;;;;;0.00;0.00;;;;;;;;;;1725514;28;20207;-70
2021/12/29 00:45:40;;;;;;;0.00;0.00;;;;;;;;;;1723255;28;20208;-70
2021/12/29 00:46:33;;;;;;;0.00;0.00;;;;;;;;;;1719047;28;20205;-70
2021/12/29 00:47:24;;;;;;;0.00;0.00;;;;;;;;;;1718427;28;20304;-70
2021/12/29 00:48:17;;;;;;;0.00;0.00;;;;;;;;;;1719455;28;20209;-70
2021/12/29 00:49:09;;;;;;;0.00;0.00;;;;;;;;;;1718334;28;20232;-70
2021/12/29 00:50:01;;;;;;;0.00;0.00;;;;;;;;;;1719174;28;20901;-70
2021/12/29 00:50:52;;;;;;;0.00;0.00;;;;;;;;;;1716316;28;20233;-70
2021/12/29 00:51:45;;;;;;;0.00;0.00;;;;;;;;;;1716309;28;20211;-70
2021/12/29 00:52:36;;;;;;;0.00;0.00;;;;;;;;;;1716565;28;20202;-70
2021/12/29 00:53:28;;;;;;;0.00;0.00;;;;;;;;;;1717863;28;20201;-70
2021/12/29 00:54:19;;;;;;;0.00;0.00;;;;;;;;;;1716193;28;20209;-70
2021/12/29 00:55:12;;;;;;;0.00;0.00;;;;;;;;;;1719421;28;20228;-70
2021/12/29 00:56:05;;;;;;;0.00;0.00;;;;;;;;;;1716276;28;20228;-70
2021/12/29 00:56:57;;;;;;;0.00;0.00;;;;;;;;;;1717387;28;20205;-70
2021/12/29 00:57:51;;;;;;;0.00;0.00;;;;;;;;;;1714952;28;20209;-70
2021/12/29 00:58:44;;;;;;;0.00;0.00;;;;;;;;;;1718066;28;20208;-70
2021/12/29 00:59:35;;;;;;;0.00;0.00;;;;;;;;;;1714118;28;20212;-70
2021/12/29 01:00:28;;;;;;;0.00;0.00;;;;;;;;;;1718354;28;20225;-70
2021/12/29 01:01:19;;;;;;;0.00;0.00;;;;;;;;;;1715304;28;20221;-70
2021/12/29 01:02:11;;;;;;;0.00;0.00;;;;;;;;;;1718450;28;20225;-70
2021/12/29 01:03:03;;;;;;;0.00;0.00;;;;;;;;;;1715505;28;20209;-70
2021/12/29 01:03:55;;;;;;;0.00;0.00;;;;;;;;;;1718003;28;20267;-70
2021/12/29 01:04:46;;;;;;;0.00;0.00;;;;;;;;;;1715582;28;20209;-70
2021/12/29 01:05:38;;;;;;;0.00;0.00;;;;;;;;;;1718412;28;20619;-70
2021/12/29 01:06:30;;;;;;;0.00;0.00;;;;;;;;;;1719137;28;20204;-70
2021/12/29 01:07:22;;;;;;;0.00;0.00;;;;;;;;;;1718794;28;20208;-70
2021/12/29 01:08:13;;;;;;;0.10;0.10;;;;;;;;;;1714111;28;20209;-70
2021/12/29 01:09:05;;;;;;;0.00;0.00;;;;;;;;;;1717668;28;20208;-70
2021/12/29 01:09:59;;;;;;;0.00;0.00;;;;;;;;;;1719255;28;20208;-70
2021/12/29 01:10:51;;;;;;;0.00;0.00;;;;;;;;;;1718333;28;20225;-69
2021/12/29 01:11:43;;;;;;;0.00;0.00;;;;;;;;;;1715706;28;20231;-69
2021/12/29 01:12:36;;;;;;;0.00;0.00;;;;;;;;;;1718742;28;20204;-69
2021/12/29 01:13:31;;;;;;;0.00;0.00;;;;;;;;;;1716459;28;20216;-69
2021/12/29 01:14:24;;;;;;;0.00;0.00;;;;;;;;;;1716751;28;20197;-69
2021/12/29 01:15:17;;;;;;;0.00;0.00;;;;;;;;;;1717536;28;20205;-69
2021/12/29 01:16:36;;;;;;;0.00;0.00;;;;;;;;;;1718086;28;20240;-70
2021/12/29 01:17:23;;;;;;;0.00;0.00;;;;;;;;;;1718606;28;20241;-70
2021/12/29 01:18:14;;;;;;;0.00;0.00;;;;;;;;;;1718994;28;20539;-70
2021/12/29 01:19:09;;;;;;;0.00;0.00;;;;;;;;;;1718377;28;20259;-70
2021/12/29 01:20:01;;;;;;;0.00;0.00;;;;;;;;;;1719086;28;20205;-70
2021/12/29 01:20:53;;;;;;;0.00;0.00;;;;;;;;;;1717197;28;20244;-69
2021/12/29 01:21:46;;;;;;;0.00;0.00;;;;;;;;;;1716072;28;20208;-69
2021/12/29 01:22:37;;;;;;;0.00;0.00;;;;;;;;;;1718419;28;20260;-69
2021/12/29 01:23:29;;;;;;;0.00;0.00;;;;;;;;;;1719469;28;20296;-69
2021/12/29 01:24:21;;;;;;;0.00;0.00;;;;;;;;;;1718482;28;20228;-69
2021/12/29 01:25:13;;;;;;;0.00;0.00;;;;;;;;;;1719731;28;20204;-69
2021/12/29 01:26:05;;;;;;;0.00;0.00;;;;;;;;;;1717739;28;20246;-69
2021/12/29 01:26:59;;;;;;;0.00;0.00;;;;;;;;;;1718183;28;20272;-69
2021/12/29 01:27:50;;;;;;;0.00;0.00;;;;;;;;;;1718436;28;20280;-69
2021/12/29 01:28:42;;;;;;;0.00;0.00;;;;;;;;;;1718720;28;20729;-69
2021/12/29 01:29:33;;;;;;;0.00;0.00;;;;;;;;;;1718398;28;20260;-69
2021/12/29 01:30:26;;;;;;;0.00;0.00;;;;;;;;;;1718374;28;20291;-71
2021/12/29 01:31:17;;;;;;;0.00;0.00;;;;;;;;;;1718602;28;20204;-70
2021/12/29 01:32:09;;;;;;;0.00;0.00;;;;;;;;;;1718874;28;20228;-70
2021/12/29 01:33:05;;;;;;;0.00;0.00;;;;;;;;;;1717767;28;20550;-70
2021/12/29 01:33:59;;;;;;;0.00;0.00;;;;;;;;;;1719113;28;20232;-70
2021/12/29 01:34:50;;;;;;;0.00;0.00;;;;;;;;;;1718663;28;20270;-70
2021/12/29 01:35:43;;;;;;;0.00;0.00;;;;;;;;;;1718275;28;20576;-69
2021/12/29 01:36:35;;;;;;;0.00;0.00;;;;;;;;;;1718889;28;20209;-69
2021/12/29 01:37:27;;;;;;;0.00;0.00;;;;;;;;;;1718418;28;20201;-70
2021/12/29 01:38:19;;;;;;;0.00;0.00;;;;;;;;;;1718883;28;20209;-69
2021/12/29 01:39:12;;;;;;;0.00;0.00;;;;;;;;;;1717346;28;20205;-69
2021/12/29 01:40:05;;;;;;;0.00;0.00;;;;;;;;;;1719271;28;20216;-69
2021/12/29 01:40:57;;;;;;;0.00;0.00;;;;;;;;;;1717853;28;20231;-70
2021/12/29 01:41:50;;;;;;;0.00;0.00;;;;;;;;;;1718739;28;20212;-70
2021/12/29 01:42:44;;;;;;;0.00;0.00;;;;;;;;;;1718448;28;20950;-70
2021/12/29 01:43:35;;;;;;;0.00;0.00;;;;;;;;;;1718809;28;20270;-70
2021/12/29 01:44:28;;;;;;;0.08;0.08;;;;;;;;;;1718007;28;20224;-70
2021/12/29 01:45:20;;;;;;;0.00;0.00;;;;;;;;;;1718421;28;20205;-70
2021/12/29 01:46:12;;;;;;;0.00;0.00;;;;;;;;;;1718198;28;20642;-70
2021/12/29 01:47:05;;;;;;;0.00;0.00;;;;;;;;;;1718242;28;20241;-70
2021/12/29 01:47:57;;;;;;;0.00;0.00;;;;;;;;;;1718349;28;20201;-70
2021/12/29 01:48:48;;;;;;;0.00;0.00;;;;;;;;;;1718526;28;20212;-70
2021/12/29 01:49:44;;;;;;;0.00;0.00;;;;;;;;;;1718312;28;20212;-70
2021/12/29 01:50:37;;;;;;;0.00;0.00;;;;;;;;;;1718128;28;20207;-70
2021/12/29 01:51:30;;;;;;;0.00;0.00;;;;;;;;;;1718248;28;20590;-70
2021/12/29 01:52:26;;;;;;;0.00;0.00;;;;;;;;;;1718591;28;20678;-70
2021/12/29 01:53:23;;;;;;;0.00;0.00;;;;;;;;;;1718996;28;20189;-70
2021/12/29 01:54:15;;;;;;;0.00;0.00;;;;;;;;;;1718355;28;20417;-70
2021/12/29 01:55:10;;;;;;;0.00;0.00;;;;;;;;;;1719322;28;20219;-70
2021/12/29 01:56:01;;;;;;;0.00;0.00;;;;;;;;;;1717674;28;20275;-70
2021/12/29 01:56:55;;;;;;;0.00;0.00;;;;;;;;;;1718550;28;20640;-70
2021/12/29 01:57:47;;;;;;;0.00;0.00;;;;;;;;;;1717875;28;20217;-70
2021/12/29 01:58:40;;;;;;;0.00;0.00;;;;;;;;;;1719031;28;20216;-70
2021/12/29 01:59:32;;;;;;;0.00;0.00;;;;;;;;;;1717551;28;20204;-70
2021/12/29 02:00:25;;;;;;;0.00;0.00;;;;;;;;;;1718467;28;20520;-71
2021/12/29 02:01:16;;;;;;;0.00;0.00;;;;;;;;;;1716936;28;20224;-70
2021/12/29 02:02:09;;;;;;;0.00;0.00;;;;;;;;;;1718405;28;20228;-70
2021/12/29 02:03:00;;;;;;;0.00;0.00;;;;;;;;;;1717741;28;20674;-70
2021/12/29 02:03:55;;;;;;;0.00;0.00;;;;;;;;;;1717891;28;20848;-70
2021/12/29 02:04:47;;;;;;;0.00;0.00;;;;;;;;;;1718950;28;20563;-70
2021/12/29 02:05:41;;;;;;;0.00;0.00;;;;;;;;;;1718543;28;20642;-70
2021/12/29 02:06:32;;;;;;;0.00;0.00;;;;;;;;;;1718816;28;20215;-70
2021/12/29 02:07:24;;;;;;;0.00;0.00;;;;;;;;;;1718720;28;20205;-70
2021/12/29 02:08:21;;;;;;;0.00;0.00;;;;;;;;;;1718631;28;20205;-70
2021/12/29 02:09:14;;;;;;;0.00;0.00;;;;;;;;;;1717343;28;20198;-70
2021/12/29 02:10:08;;;;;;;0.00;0.00;;;;;;;;;;1715780;28;20675;-70
2021/12/29 02:11:01;;;;;;;0.00;0.00;;;;;;;;;;1717442;28;20247;-70
2021/12/29 02:11:52;;;;;;;0.00;0.00;;;;;;;;;;1718945;28;20668;-69
2021/12/29 02:12:44;;;;;;;0.00;0.00;;;;;;;;;;1718021;28;20237;-70
2021/12/29 02:13:37;;;;;;;0.00;0.00;;;;;;;;;;1718799;28;20208;-69
2021/12/29 02:14:30;;;;;;;0.00;0.00;;;;;;;;;;1717842;28;20536;-69
2021/12/29 02:15:22;;;;;;;0.00;0.00;;;;;;;;;;1718395;28;20520;-69
2021/12/29 02:16:14;;;;;;;0.00;0.00;;;;;;;;;;1724393;28;20268;-70
2021/12/29 02:17:06;;;;;;;0.00;0.00;;;;;;;;;;1725164;28;20589;-70
2021/12/29 02:17:58;;;;;;;0.00;0.00;;;;;;;;;;1725259;28;20227;-70
2021/12/29 02:18:53;;;;;;;0.00;0.00;;;;;;;;;;1724989;28;20548;-70
2021/12/29 02:19:46;;;;;;;0.00;0.00;;;;;;;;;;1725212;28;20615;-70
2021/12/29 02:20:39;;;;;;;0.00;0.00;;;;;;;;;;1724493;28;20251;-70
2021/12/29 02:21:32;;;;;;;0.00;0.00;;;;;;;;;;1724846;28;20733;-70
2021/12/29 02:22:34;;;;;;;0.00;0.00;;;;;;;;;;1724657;28;20224;-70
2021/12/29 02:23:33;;;;;;;0.00;0.00;;;;;;;;;;1722662;28;20295;-70
2021/12/29 02:24:36;;;;;;;0.00;0.00;;;;;;;;;;1724943;28;20208;-70
2021/12/29 02:25:46;;;;;;;0.00;0.00;;;;;;;;;;1724746;28;20196;-70
2021/12/29 02:26:38;;;;;;;0.00;0.00;;;;;;;;;;1725043;28;20637;-70
2021/12/29 02:27:31;;;;;;;0.00;0.00;;;;;;;;;;1722465;28;20204;-70
2021/12/29 02:28:24;;;;;;;0.00;0.00;;;;;;;;;;1725217;28;20204;-70
2021/12/29 02:29:18;;;;;;;0.00;0.00;;;;;;;;;;1724280;28;20622;-70
2021/12/29 02:30:09;;;;;;;0.00;0.00;;;;;;;;;;1725888;28;20649;-70
2021/12/29 02:31:02;;;;;;;0.00;0.00;;;;;;;;;;1724165;28;20246;-69
2021/12/29 02:31:53;;;;;;;0.00;0.00;;;;;;;;;;1725511;28;20235;-69
2021/12/29 02:32:46;;;;;;;0.00;0.00;;;;;;;;;;1724687;28;20203;-69
2021/12/29 02:33:37;;;;;;;0.00;0.00;;;;;;;;;;1724882;28;20208;-69
2021/12/29 02:34:29;;;;;;;0.00;0.00;;;;;;;;;;1724857;28;20231;-69
2021/12/29 02:35:21;;;;;;;0.00;0.00;;;;;;;;;;1725561;28;20210;-69
2021/12/29 02:36:16;;;;;;;0.00;0.00;;;;;;;;;;1724562;28;20245;-70
2021/12/29 02:37:08;;;;;;;0.00;0.00;;;;;;;;;;1725454;28;20235;-70
2021/12/29 02:38:01;;;;;;;0.00;0.00;;;;;;;;;;1724948;28;20215;-70
2021/12/29 02:38:55;;;;;;;0.00;0.00;;;;;;;;;;1725178;28;20306;-70
2021/12/29 02:39:48;;;;;;;0.00;0.00;;;;;;;;;;1724490;28;20243;-70
2021/12/29 02:40:40;;;;;;;0.00;0.00;;;;;;;;;;1724357;28;21165;-70
2021/12/29 02:41:32;;;;;;;0.00;0.00;;;;;;;;;;1724988;28;20239;-70
2021/12/29 02:42:27;;;;;;;0.00;0.00;;;;;;;;;;1725057;28;20223;-70
2021/12/29 02:43:22;;;;;;;0.00;0.00;;;;;;;;;;1725410;28;20224;-70
2021/12/29 02:44:18;;;;;;;0.00;0.00;;;;;;;;;;1725577;28;20295;-69
2021/12/29 02:45:13;;;;;;;0.00;0.00;;;;;;;;;;1723499;28;20206;-70
2021/12/29 02:46:08;;;;;;;0.00;0.00;;;;;;;;;;1723030;28;20236;-70
2021/12/29 02:47:00;;;;;;;0.00;0.00;;;;;;;;;;1724693;28;20730;-70
2021/12/29 02:47:51;;;;;;;0.00;0.00;;;;;;;;;;1724911;28;20206;-70
2021/12/29 02:48:50;;;;;;;0.00;0.00;;;;;;;;;;1725269;28;20208;-70
2021/12/29 02:49:41;;;;;;;0.00;0.00;;;;;;;;;;1723807;28;20200;-70
2021/12/29 02:50:34;;;;;;;0.00;0.00;;;;;;;;;;1722690;28;20208;-70
2021/12/29 02:51:28;;;;;;;0.00;0.00;;;;;;;;;;1718409;28;20568;-70
2021/12/29 02:52:20;;;;;;;0.00;0.00;;;;;;;;;;1717442;28;20640;-70
2021/12/29 02:53:12;;;;;;;0.00;0.00;;;;;;;;;;1718379;28;20197;-70
2021/12/29 02:54:04;;;;;;;0.00;0.00;;;;;;;;;;1718133;28;20201;-70
2021/12/29 02:54:55;;;;;;;0.00;0.00;;;;;;;;;;1718628;28;20213;-70
2021/12/29 02:55:48;;;;;;;0.00;0.00;;;;;;;;;;1721457;28;20649;-70
2021/12/29 02:56:39;;;;;;;0.00;0.00;;;;;;;;;;1725147;28;20215;-70
2021/12/29 02:57:31;;;;;;;0.00;0.00;;;;;;;;;;1724587;28;20300;-70
2021/12/29 02:58:24;;;;;;;0.00;0.00;;;;;;;;;;1724511;28;20209;-70
2021/12/29 02:59:16;;;;;;;0.00;0.00;;;;;;;;;;1723764;28;20209;-70
2021/12/29 03:00:12;;;;;;;0.00;0.00;;;;;;;;;;1725758;28;20212;-70
2021/12/29 03:01:06;;;;;;;0.00;0.00;;;;;;;;;;1722884;28;20220;-69
2021/12/29 03:01:57;;;;;;;0.00;0.00;;;;;;;;;;1724000;28;20208;-69
2021/12/29 03:02:49;;;;;;;0.00;0.00;;;;;;;;;;1724537;28;20204;-69
2021/12/29 03:03:40;;;;;;;0.00;0.00;;;;;;;;;;1724226;28;20210;-69
2021/12/29 03:04:33;;;;;;;0.00;0.00;;;;;;;;;;1724578;28;20200;-69
2021/12/29 03:05:26;;;;;;;0.00;0.00;;;;;;;;;;1723872;28;20269;-70
2021/12/29 03:06:19;;;;;;;0.00;0.00;;;;;;;;;;1718561;28;20205;-70
2021/12/29 03:07:12;;;;;;;0.00;0.00;;;;;;;;;;1718469;28;20224;-70
2021/12/29 03:08:05;;;;;;;0.00;0.00;;;;;;;;;;1718322;28;20212;-70
2021/12/29 03:08:56;;;;;;;0.00;0.00;;;;;;;;;;1718277;28;20217;-70
2021/12/29 03:09:48;;;;;;;0.00;0.00;;;;;;;;;;1718372;28;20212;-70
2021/12/29 03:10:39;;;;;;;0.00;0.00;;;;;;;;;;1716943;28;20683;-70
2021/12/29 03:11:32;;;;;;;0.00;0.00;;;;;;;;;;1718664;28;20377;-70
2021/12/29 03:12:23;;;;;;;0.00;0.00;;;;;;;;;;1718123;28;20221;-70
2021/12/29 03:13:15;;;;;;;0.00;0.00;;;;;;;;;;1718553;28;20215;-70
2021/12/29 03:14:07;;;;;;;0.00;0.00;;;;;;;;;;1717996;28;20208;-70
2021/12/29 03:14:59;;;;;;;0.00;0.00;;;;;;;;;;1718368;28;20511;-70
2021/12/29 03:15:50;;;;;;;0.00;0.00;;;;;;;;;;1717814;28;20237;-70
2021/12/29 03:16:43;;;;;;;0.00;0.00;;;;;;;;;;1717981;28;20216;-70
2021/12/29 03:17:34;;;;;;;0.00;0.00;;;;;;;;;;1717731;28;20565;-70
2021/12/29 03:18:26;;;;;;;0.00;0.00;;;;;;;;;;1715568;28;20200;-70
2021/12/29 03:19:17;;;;;;;0.00;0.00;;;;;;;;;;1717186;28;20205;-70
2021/12/29 03:20:11;;;;;;;0.00;0.00;;;;;;;;;;1719280;28;20208;-70
2021/12/29 03:21:03;;;;;;;0.00;0.00;;;;;;;;;;1717168;28;20290;-69
2021/12/29 03:21:55;;;;;;;0.00;0.00;;;;;;;;;;1718716;28;20208;-69
2021/12/29 03:22:48;;;;;;;0.00;0.00;;;;;;;;;;1717446;28;20217;-69
2021/12/29 03:23:41;;;;;;;0.00;0.00;;;;;;;;;;1718313;28;20235;-69
2021/12/29 03:24:32;;;;;;;0.00;0.00;;;;;;;;;;1718283;28;20275;-69
2021/12/29 03:25:25;;;;;;;0.00;0.00;;;;;;;;;;1718187;28;20214;-70
2021/12/29 03:26:16;;;;;;;0.00;0.00;;;;;;;;;;1716777;28;20673;-70
2021/12/29 03:27:08;;;;;;;0.00;0.00;;;;;;;;;;1718828;28;20231;-70
2021/12/29 03:28:00;;;;;;;0.00;0.00;;;;;;;;;;1716810;28;20233;-70
2021/12/29 03:28:53;;;;;;;0.00;0.00;;;;;;;;;;1717926;28;20212;-70
2021/12/29 03:29:44;;;;;;;0.00;0.00;;;;;;;;;;1716157;28;20224;-70
2021/12/29 03:30:37;;;;;;;0.00;0.00;;;;;;;;;;1717913;28;20283;-69
2021/12/29 03:31:31;;;;;;;0.00;0.00;;;;;;;;;;1714825;28;20210;-69
2021/12/29 03:32:37;;;;;;;0.00;0.00;;;;;;;;;;1717419;28;20535;-69
2021/12/29 03:33:28;;;;;;;0.00;0.00;;;;;;;;;;1715810;28;20201;-69
2021/12/29 03:34:21;;;;;;;0.00;0.00;;;;;;;;;;1716130;28;20273;-69
2021/12/29 03:35:12;;;;;;;0.00;0.00;;;;;;;;;;1711825;28;20205;-69
2021/12/29 03:36:05;;;;;;;0.00;0.00;;;;;;;;;;1716322;28;20590;-69
2021/12/29 03:36:56;;;;;;;0.08;0.08;;;;;;;;;;1718640;28;20205;-69
2021/12/29 03:37:49;;;;;;;0.00;0.00;;;;;;;;;;1717955;28;20212;-69
2021/12/29 03:38:41;;;;;;;0.00;0.00;;;;;;;;;;1718789;28;20217;-69
2021/12/29 03:39:38;;;;;;;0.00;0.00;;;;;;;;;;1718058;28;20276;-69
2021/12/29 03:40:30;;;;;;;0.00;0.00;;;;;;;;;;1717135;28;20395;-69
2021/12/29 03:41:23;;;;;;;0.00;0.00;;;;;;;;;;1717939;28;20576;-69
2021/12/29 03:42:15;;;;;;;0.00;0.00;;;;;;;;;;1718046;28;20217;-69
2021/12/29 03:43:08;;;;;;;0.00;0.00;;;;;;;;;;1718499;28;20653;-69
2021/12/29 03:44:01;;;;;;;0.00;0.00;;;;;;;;;;1718277;28;20212;-69
2021/12/29 03:44:53;;;;;;;0.00;0.00;;;;;;;;;;1718245;28;20202;-69
2021/12/29 03:45:46;;;;;;;0.00;0.00;;;;;;;;;;1717713;28;20772;-70
2021/12/29 03:46:39;;;;;;;0.00;0.00;;;;;;;;;;1717667;28;20200;-70
2021/12/29 03:47:32;;;;;;;0.00;0.00;;;;;;;;;;1717806;28;20230;-70
2021/12/29 03:48:26;;;;;;;0.00;0.00;;;;;;;;;;1718455;28;20214;-70
2021/12/29 03:49:18;;;;;;;0.00;0.00;;;;;;;;;;1717426;28;20520;-70
2021/12/29 03:50:11;;;;;;;0.00;0.00;;;;;;;;;;1719030;28;20205;-70
2021/12/29 03:51:03;;;;;;;0.00;0.00;;;;;;;;;;1717314;28;20670;-69
2021/12/29 03:51:55;;;;;;;0.00;0.00;;;;;;;;;;1718679;28;20229;-69
2021/12/29 03:52:46;;;;;;;0.00;0.00;;;;;;;;;;1717504;28;20208;-69
2021/12/29 03:53:40;;;;;;;0.00;0.00;;;;;;;;;;1711898;28;20448;-69
2021/12/29 03:54:31;;;;;;;0.00;0.00;;;;;;;;;;1718085;28;20621;-69
2021/12/29 03:55:23;;;;;;;0.00;0.00;;;;;;;;;;1718305;28;20207;-69
2021/12/29 03:56:14;;;;;;;0.00;0.00;;;;;;;;;;1718123;28;20232;-69
2021/12/29 03:57:06;;;;;;;0.00;0.00;;;;;;;;;;1717914;28;20205;-69
2021/12/29 03:57:58;;;;;;;0.00;0.00;;;;;;;;;;1718320;28;20555;-69
2021/12/29 03:58:50;;;;;;;0.00;0.00;;;;;;;;;;1717477;28;20205;-69
2021/12/29 03:59:41;;;;;;;0.00;0.00;;;;;;;;;;1717829;28;20213;-69
2021/12/29 04:00:33;;;;;;;0.00;0.00;;;;;;;;;;1717383;28;20205;-69
2021/12/29 04:01:25;;;;;;;0.00;0.00;;;;;;;;;;1716333;28;20647;-69
2021/12/29 04:02:18;;;;;;;0.00;0.00;;;;;;;;;;1718008;28;20238;-69
2021/12/29 04:03:09;;;;;;;0.00;0.00;;;;;;;;;;1718049;28;20213;-69
2021/12/29 04:04:01;;;;;;;0.00;0.00;;;;;;;;;;1717117;28;20244;-69
2021/12/29 04:04:52;;;;;;;0.00;0.00;;;;;;;;;;1718009;28;20263;-69
2021/12/29 04:05:45;;;;;;;0.00;0.00;;;;;;;;;;1717362;28;20229;-69
2021/12/29 04:06:36;;;;;;;0.00;0.00;;;;;;;;;;1718665;28;20220;-69
2021/12/29 04:07:28;;;;;;;0.00;0.00;;;;;;;;;;1717870;28;20215;-69
2021/12/29 04:08:19;;;;;;;0.00;0.00;;;;;;;;;;1718624;28;20586;-69
2021/12/29 04:09:13;;;;;;;0.00;0.00;;;;;;;;;;1717620;28;20200;-69
2021/12/29 04:10:05;;;;;;;0.00;0.00;;;;;;;;;;1718802;28;20212;-69
2021/12/29 04:10:57;;;;;;;0.00;0.00;;;;;;;;;;1718135;28;20287;-69
2021/12/29 04:11:50;;;;;;;0.00;0.00;;;;;;;;;;1719337;28;20272;-69
2021/12/29 04:12:43;;;;;;;0.00;0.00;;;;;;;;;;1719404;28;20469;-69
2021/12/29 04:13:35;;;;;;;0.00;0.00;;;;;;;;;;1719853;28;20543;-69
2021/12/29 04:14:28;;;;;;;0.00;0.00;;;;;;;;;;1719193;28;20215;-69
2021/12/29 04:15:19;;;;;;;0.00;0.00;;;;;;;;;;1720017;28;20213;-69
2021/12/29 04:16:16;;;;;;;0.00;0.00;;;;;;;;;;1718954;28;20235;-69
2021/12/29 04:17:08;;;;;;;0.00;0.00;;;;;;;;;;1719214;28;20197;-69
2021/12/29 04:18:04;;;;;;;0.00;0.00;;;;;;;;;;1719133;28;20216;-69
2021/12/29 04:19:06;;;;;;;0.00;0.00;;;;;;;;;;1719241;28;21067;-69
2021/12/29 04:21:10;;;;;;;0.00;0.00;;;;;;;;;;1718817;28;20267;-69
2021/12/29 04:22:01;;;;;;;0.00;0.00;;;;;;;;;;1719615;28;20208;-69
2021/12/29 04:22:53;;;;;;;0.00;0.00;;;;;;;;;;1719654;28;20219;-69
2021/12/29 04:23:44;;;;;;;0.00;0.00;;;;;;;;;;1718817;28;20471;-69
2021/12/29 04:24:38;;;;;;;0.00;0.00;;;;;;;;;;1719636;28;20216;-69
2021/12/29 04:25:34;;;;;;;0.00;0.00;;;;;;;;;;1719136;28;20550;-70
2021/12/29 04:26:26;;;;;;;0.00;0.00;;;;;;;;;;1719561;28;20201;-70
2021/12/29 04:27:21;;;;;;;0.00;0.00;;;;;;;;;;1719535;28;20529;-70
2021/12/29 04:28:16;;;;;;;0.00;0.00;;;;;;;;;;1719571;28;20204;-70
2021/12/29 04:29:11;;;;;;;0.00;0.00;;;;;;;;;;1718684;28;20615;-70
2021/12/29 04:30:03;;;;;;;0.00;0.00;;;;;;;;;;1719131;28;20208;-70
2021/12/29 04:30:56;;;;;;;0.00;0.00;;;;;;;;;;1718991;28;20590;-70
2021/12/29 04:31:48;;;;;;;0.00;0.00;;;;;;;;;;1717084;28;20247;-70
2021/12/29 04:32:39;;;;;;;0.00;0.00;;;;;;;;;;1719052;28;20603;-70
2021/12/29 04:33:32;;;;;;;0.00;0.00;;;;;;;;;;1719831;28;20209;-70
2021/12/29 04:34:23;;;;;;;0.00;0.00;;;;;;;;;;1719036;28;20662;-70
2021/12/29 04:35:16;;;;;;;0.00;0.00;;;;;;;;;;1720033;28;20216;-70
2021/12/29 04:36:09;;;;;;;0.00;0.00;;;;;;;;;;1717833;28;20239;-70
2021/12/29 04:37:00;;;;;;;0.00;0.00;;;;;;;;;;1719677;28;20236;-69
2021/12/29 04:37:52;;;;;;;0.00;0.00;;;;;;;;;;1719553;28;20213;-69
2021/12/29 04:38:44;;;;;;;0.00;0.00;;;;;;;;;;1719491;28;20509;-69
2021/12/29 04:39:37;;;;;;;0.00;0.00;;;;;;;;;;1719212;28;20236;-69
2021/12/29 04:40:28;;;;;;;0.00;0.00;;;;;;;;;;1718722;28;20215;-69
2021/12/29 04:41:20;;;;;;;0.00;0.00;;;;;;;;;;1719297;28;20505;-69
2021/12/29 04:42:12;;;;;;;0.00;0.00;;;;;;;;;;1718882;28;20209;-69
2021/12/29 04:43:04;;;;;;;0.00;0.00;;;;;;;;;;1719493;28;20259;-69
2021/12/29 04:43:56;;;;;;;0.00;0.00;;;;;;;;;;1719409;28;20233;-69
2021/12/29 04:44:48;;;;;;;0.00;0.00;;;;;;;;;;1719334;28;20232;-69
2021/12/29 04:45:39;;;;;;;0.00;0.00;;;;;;;;;;1718880;28;20232;-70
2021/12/29 04:46:38;;;;;;;0.00;0.00;;;;;;;;;;1719322;28;20197;-70
2021/12/29 04:47:30;;;;;;;0.00;0.00;;;;;;;;;;1718981;28;20193;-70
2021/12/29 04:48:24;;;;;;;0.00;0.00;;;;;;;;;;1719703;28;20523;-70
2021/12/29 04:49:22;;;;;;;0.00;0.00;;;;;;;;;;1718635;28;20291;-70
2021/12/29 04:50:23;;;;;;;0.00;0.00;;;;;;;;;;1720640;28;20296;-70
2021/12/29 04:51:22;;;;;;;0.00;0.00;;;;;;;;;;1715187;28;20597;-69
2021/12/29 04:52:14;;;;;;;0.00;0.00;;;;;;;;;;1715347;28;20426;-69
2021/12/29 04:53:07;;;;;;;0.00;0.00;;;;;;;;;;1717700;28;20212;-69
2021/12/29 04:53:59;;;;;;;0.00;0.00;;;;;;;;;;1718767;28;20205;-69
2021/12/29 04:54:51;;;;;;;0.00;0.00;;;;;;;;;;1718342;28;20230;-69
2021/12/29 04:55:45;;;;;;;0.00;0.00;;;;;;;;;;1718757;28;20244;-69
2021/12/29 04:56:36;;;;;;;0.00;0.00;;;;;;;;;;1716265;28;20210;-69
2021/12/29 04:57:31;;;;;;;0.00;0.00;;;;;;;;;;1719660;28;20503;-69
2021/12/29 04:58:23;;;;;;;0.00;0.00;;;;;;;;;;1716479;28;20553;-69
2021/12/29 04:59:16;;;;;;;0.00;0.00;;;;;;;;;;1718423;28;20211;-69
2021/12/29 05:00:10;;;;;;;0.00;0.00;;;;;;;;;;1715955;28;20243;-69
2021/12/29 05:01:02;;;;;;;0.00;0.00;;;;;;;;;;1716990;28;20231;-69
2021/12/29 05:01:53;;;;;;;0.00;0.00;;;;;;;;;;1717134;28;20208;-69
2021/12/29 05:02:46;;;;;;;0.00;0.00;;;;;;;;;;1717763;28;20212;-69
2021/12/29 05:03:38;;;;;;;0.00;0.00;;;;;;;;;;1716422;28;20218;-69
2021/12/29 05:04:32;;;;;;;0.00;0.00;;;;;;;;;;1717209;28;20231;-69
2021/12/29 05:05:39;;;;;;;0.00;0.00;;;;;;;;;;1718092;28;20419;-69
2021/12/29 05:08:50;;;;;;;0.00;0.00;;;;;;;;;;1726221;28;20198;-69
2021/12/29 05:09:42;;;;;;;0.00;0.00;;;;;;;;;;1725625;28;20208;-69
2021/12/29 05:10:36;;;;;;;0.00;0.00;;;;;;;;;;1725732;28;20508;-70
2021/12/29 05:11:28;;;;;;;0.00;0.00;;;;;;;;;;1725991;28;20213;-70
2021/12/29 05:12:20;;;;;;;0.00;0.00;;;;;;;;;;1725359;28;20247;-70
2021/12/29 05:13:11;;;;;;;0.00;0.00;;;;;;;;;;1726070;28;20231;-70
2021/12/29 05:14:04;;;;;;;0.00;0.00;;;;;;;;;;1725710;28;20296;-70
2021/12/29 05:14:55;;;;;;;0.00;0.00;;;;;;;;;;1725206;28;20209;-70
2021/12/29 05:15:47;;;;;;;0.00;0.00;;;;;;;;;;1725277;28;20577;-69
2021/12/29 05:16:38;;;;;;;0.00;0.00;;;;;;;;;;1726490;28;20204;-70
2021/12/29 05:17:31;;;;;;;0.00;0.00;;;;;;;;;;1725732;28;20196;-70
2021/12/29 05:18:22;;;;;;;0.00;0.00;;;;;;;;;;1725446;28;20462;-70
2021/12/29 05:19:14;;;;;;;0.00;0.00;;;;;;;;;;1725717;28;20299;-70
2021/12/29 05:20:07;;;;;;;0.00;0.00;;;;;;;;;;1726593;28;20653;-70